Latest Weather Observations for Mount Keith

IDW60801

Issued at 10:02 am WST Thursday 11 February 2016 (issued every 30 minutes, with the page automatically refreshed every 10 minutes)

About weather observations | Map of weather stations | Latest weather observations for WA | Other Formats
Station Details ID: 512019 Name: MOUNT KEITH Lat: -27.29 Lon: 120.55 Height: 542.33 m
Data from the previous 72 hours. | See also: Recent months for locations in Western Australia
Date/Time
WST
Temp
°C
App
Temp
°C
Dew
Point
Rel
Hum
%
Delta-T
°C
Wind Press
QNH
hPa
Press
MSL
hPa
Rain
since 9 am
mm
Dir
 
Spd
km/h
Gust
km/h
Spd
kts
Gust
kts
11/10:00am 35.2 30.4 2.6 13 17.2 ENE 17 - 9 - - 1013.3 -
11/09:30am 34.0 29.4 5.5 17 15.7 ENE 19 26 10 14 1017.7 1013.5 0.0
11/09:00am 33.2 28.6 6.5 19 14.8 ENE 20 28 11 15 1017.8 1013.6 -
11/08:30am 31.9 27.2 6.2 20 14.1 ENE 20 28 11 15 1018.0 1013.8 -
11/08:00am 30.8 26.1 6.0 21 13.5 ENE 20 30 11 16 1018.0 1013.8 -
11/07:30am 28.7 24.1 5.5 23 12.4 ENE 19 24 10 13 1018.0 1013.8 -
11/07:00am 27.4 23.6 5.6 25 11.6 ENE 15 20 8 11 1017.9 1013.7 -
11/06:30am 25.7 22.8 6.3 29 10.3 E 11 15 6 8 1017.6 1013.4 -
11/06:00am 23.9 21.3 6.2 32 9.3 E 9 11 5 6 1017.4 1013.2 -
11/05:30am 24.7 21.6 5.5 29 10.0 E 11 15 6 8 1016.9 1012.7 -
11/05:00am 24.4 21.2 5.2 29 9.9 ESE 11 15 6 8 1016.7 1012.5 -
11/04:30am 25.5 21.8 4.6 26 10.8 E 13 17 7 9 1016.5 1012.3 -
11/04:00am 26.8 22.6 4.0 23 11.7 E 15 22 8 12 1016.2 1012.0 -
11/03:30am 27.6 22.5 3.3 21 12.4 E 19 26 10 14 1016.0 1011.8 -
11/03:00am 28.3 23.1 2.5 19 13.0 E 19 26 10 14 1015.8 1011.6 0.0
11/02:30am 27.5 23.5 2.6 20 12.6 ESE 13 17 7 9 1015.6 1011.4 -
11/02:00am 27.3 23.3 3.1 21 12.3 ESE 13 15 7 8 1015.6 1011.4 -
11/01:30am 27.6 23.9 2.6 20 12.6 ESE 11 15 6 8 1015.5 1011.2 -
11/01:00am 28.6 24.2 2.7 19 13.2 ESE 15 17 8 9 1015.3 1011.0 -
11/12:30am 29.3 24.9 2.5 18 13.6 ESE 15 20 8 11 1015.5 1011.2 -
11/12:00am 30.3 25.0 1.7 16 14.4 ESE 19 28 10 15 1015.6 1011.4 -
 
Date/Time
WST
Temp
°C
App
Temp
°C
Dew
Point
Rel
Hum
%
Delta-T
°C
Wind Press
QNH
hPa
Press
MSL
hPa
Rain
since 9 am
mm
Dir
 
Spd
km/h
Gust
km/h
Spd
kts
Gust
kts
10/11:30pm 29.8 25.8 2.9 18 13.8 SE 13 17 7 9 1015.6 1011.4 -
10/11:00pm 30.3 25.5 2.5 17 14.2 ESE 17 20 9 11 1015.8 1011.6 -
10/10:30pm 30.5 26.2 3.5 18 14.1 SE 15 20 8 11 1016.0 1011.8 -
10/10:00pm 31.1 26.6 4.0 18 14.3 SE 17 20 9 11 1016.1 1011.9 -
10/09:30pm 30.5 27.6 6.4 22 13.2 SE 11 15 6 8 1016.1 1011.9 -
10/09:00pm 31.1 28.1 6.2 21 13.6 SE 11 13 6 7 1016.1 1011.9 -
10/08:30pm 31.6 29.3 7.3 22 13.6 SE 9 11 5 6 1015.9 1011.7 -
10/08:00pm 32.6 29.7 6.7 20 14.4 SE 11 11 6 6 1015.7 1011.5 -
10/07:30pm 34.1 31.2 4.7 16 16.0 SE 9 11 5 6 1015.4 1011.1 -
10/07:00pm 35.5 32.1 3.9 14 17.1 SE 11 13 6 7 1015.1 1010.8 -
10/06:30pm 37.4 32.5 2.0 11 18.7 SE 17 20 9 11 1014.6 1010.4 -
10/06:00pm 38.3 33.9 2.7 11 19.1 SE 15 24 8 13 1014.3 1010.1 -
10/05:30pm 38.6 33.9 2.9 11 19.3 SSE 17 24 9 13 1014.0 1009.8 0.0
10/05:00pm 38.8 35.9 1.7 10 19.7 ENE 6 9 3 5 1013.8 1009.5 0.0
10/04:30pm 38.9 35.1 1.8 10 19.7 SE 11 19 6 10 1013.8 1009.5 0.0
10/04:00pm 38.6 34.8 1.6 10 19.6 SE 11 19 6 10 1013.9 1009.7 0.0
10/03:30pm 39.6 35.5 2.3 10 20.1 SE 13 24 7 13 1014.0 1009.8 0.0
10/03:00pm 39.4 35.1 3.5 11 19.6 ENE 15 37 8 20 1014.1 1009.9 0.0
10/02:30pm 38.4 34.0 2.8 11 19.2 SSE 15 28 8 15 1014.4 1010.2 0.0
10/02:00pm 38.7 34.4 3.0 11 19.3 SE 15 22 8 12 1014.6 1010.4 0.0
10/01:30pm 38.6 34.2 2.9 11 19.3 S 15 26 8 14 1014.9 1010.7 0.0
10/01:00pm 38.8 36.4 4.3 12 19.0 NNW 6 13 3 7 1015.3 1011.0 0.0
10/12:30pm 37.9 34.6 4.7 13 18.4 NNE 11 19 6 10 1015.6 1011.4 0.0
10/12:00pm 37.7 34.4 4.6 13 18.3 E 11 26 6 14 1016.0 1011.8 0.0
10/11:30am 37.6 34.5 5.6 14 17.9 NE 11 24 6 13 1016.4 1012.2 0.0
10/11:00am 36.4 32.4 6.6 16 16.8 NE 17 30 9 16 1016.9 1012.7 0.0
10/10:30am 36.1 31.3 7.2 17 16.5 ENE 22 32 12 17 1017.5 1013.3 0.0
10/10:00am 35.3 31.1 8.2 19 15.6 NE 20 32 11 17 1017.8 1013.6 0.0
10/09:30am 33.6 29.4 8.3 21 14.5 ENE 20 30 11 16 1018.1 1013.9 0.0
10/09:00am 33.3 28.5 8.7 22 14.1 ENE 24 32 13 17 1018.3 1014.1 0.0
10/08:30am 31.8 27.0 8.7 24 13.2 NE 24 30 13 16 1018.3 1014.1 0.0
10/08:00am 31.0 26.9 8.7 25 12.7 ENE 20 28 11 15 1018.1 1013.9 0.0
10/07:30am 29.2 25.8 9.3 29 11.3 ENE 17 24 9 13 1018.0 1013.8 0.0
10/07:00am 27.3 25.5 9.6 33 10.0 E 9 15 5 8 1017.9 1013.7 0.0
10/06:30am 25.3 24.9 8.3 34 9.3 CALM 0 0 0 0 1017.7 1013.5 0.0
10/06:00am 23.7 22.1 8.6 38 8.3 SE 7 7 4 4 1017.2 1012.9 0.0
10/05:30am 22.9 22.0 7.8 38 8.1 SSE 2 6 1 3 1016.8 1012.6 0.0
10/05:00am 23.4 21.5 7.5 36 8.5 SE 7 9 4 5 1016.3 1012.1 0.0
10/04:30am 24.1 21.6 6.4 32 9.4 ESE 9 11 5 6 1016.1 1011.9 0.0
10/04:00am 25.4 22.4 6.1 29 10.2 ESE 11 15 6 8 1015.7 1011.5 0.0
10/03:30am 26.4 22.9 5.4 26 11.0 ESE 13 19 7 10 1015.5 1011.2 0.0
10/03:00am 26.6 23.1 5.5 26 11.1 ESE 13 17 7 9 1015.4 1011.1 0.0
10/02:30am 26.8 22.9 3.3 22 11.9 ESE 13 17 7 9 1015.2 1010.9 0.0
10/02:00am 26.3 22.7 2.9 22 11.8 ESE 11 15 6 8 1015.1 1010.8 0.0
10/01:30am 26.4 22.8 3.0 22 11.8 SE 11 13 6 7 1015.2 1010.9 0.0
10/01:00am 26.4 23.6 3.0 22 11.8 SE 7 9 4 5 1015.5 1011.2 0.0
10/12:30am 26.4 23.7 3.6 23 11.6 SE 7 9 4 5 1015.7 1011.5 0.0
10/12:00am 26.8 23.8 4.0 23 11.7 SE 9 11 5 6 1015.9 1011.7 0.0
 
Date/Time
WST
Temp
°C
App
Temp
°C
Dew
Point
Rel
Hum
%
Delta-T
°C
Wind Press
QNH
hPa
Press
MSL
hPa
Rain
since 9 am
mm
Dir
 
Spd
km/h
Gust
km/h
Spd
kts
Gust
kts
09/11:30pm 27.5 24.6 4.5 23 12.0 SE 9 13 5 7 1016.1 1011.9 0.0
09/11:00pm 28.2 25.7 4.5 22 12.4 SE 7 9 4 5 1016.3 1012.1 0.0
09/10:30pm 28.6 25.1 5.5 23 12.3 SE 13 17 7 9 1016.5 1012.3 0.0
09/10:00pm 28.4 25.9 6.5 25 11.9 SE 9 11 5 6 1016.4 1012.2 0.0
09/09:30pm 29.2 26.2 6.0 23 12.5 SE 11 13 6 7 1016.5 1012.3 0.0
09/09:00pm 29.6 27.0 6.3 23 12.7 SE 9 11 5 6 1016.5 1012.3 0.0
09/08:30pm 30.4 27.8 6.3 22 13.2 SE 9 11 5 6 1016.4 1012.2 0.0
09/08:00pm 31.2 28.5 5.6 20 13.9 SE 9 11 5 6 1016.2 1012.0 0.0
09/07:30pm 32.4 29.4 4.2 17 15.0 ESE 9 13 5 7 1016.0 1011.8 0.0
09/07:00pm 34.0 30.9 3.7 15 16.2 SE 9 15 5 8 1015.7 1011.5 0.0
09/06:30pm 36.1 32.2 1.0 11 18.2 SE 11 17 6 9 1015.5 1011.2 0.0
09/06:00pm 37.2 32.4 0.5 10 19.0 S 15 20 8 11 1015.1 1010.8 0.0
09/05:30pm 37.4 32.7 0.7 10 19.0 SSE 15 24 8 13 1015.1 1010.8 0.0
09/05:00pm 37.5 33.4 2.1 11 18.8 ESE 13 22 7 12 1015.1 1010.8 0.0
09/04:30pm 37.6 32.9 0.8 10 19.1 SSE 15 22 8 12 1015.1 1010.8 0.0
09/04:00pm 38.0 32.6 2.5 11 19.0 SSW 20 30 11 16 1014.9 1010.7 0.0
09/03:30pm 37.8 33.7 2.3 11 18.9 SE 13 20 7 11 1015.1 1010.8 0.0
09/03:00pm 38.3 34.3 2.7 11 19.1 SSE 13 28 7 15 1015.2 1010.9 0.0
09/02:30pm 37.8 33.3 2.3 11 18.9 SSW 15 20 8 11 1015.5 1011.2 0.0
09/02:00pm 37.2 33.6 3.1 12 18.3 E 11 26 6 14 1015.8 1011.6 0.0
09/01:30pm 38.1 33.5 3.8 12 18.7 SE 17 30 9 16 1016.1 1011.9 0.0
09/01:00pm 36.5 32.1 4.7 14 17.5 SE 17 24 9 13 1016.5 1012.3 0.0
09/12:30pm 36.7 34.0 3.8 13 17.8 ENE 7 15 4 8 1016.8 1012.6 0.0
09/12:00pm 36.5 32.8 4.7 14 17.4 ENE 13 24 7 13 1017.2 1012.9 0.0
09/11:30am 35.7 32.3 6.0 16 16.6 NNE 13 20 7 11 1017.7 1013.5 0.0
09/11:00am 35.2 32.1 7.3 18 15.8 NE 13 22 7 12 1018.1 1013.9 0.0
09/10:30am 34.3 30.3 8.1 20 15.0 ENE 19 26 10 14 1018.6 1014.4 0.0
09/10:00am 33.1 29.0 8.5 22 14.1 ENE 20 30 11 16 1019.0 1014.8 0.0
09/09:30am 32.4 28.3 8.6 23 13.6 ENE 20 28 11 15 1019.3 1015.1 0.0
09/09:00am 30.8 27.0 9.1 26 12.4 ENE 19 26 10 14 1019.4 1015.2 0.0
09/08:30am 30.2 26.6 9.7 28 11.8 ENE 19 26 10 14 1019.4 1015.2 0.0
09/08:00am 28.8 25.1 10.0 31 10.8 ENE 20 26 11 14 1019.4 1015.2 0.0
09/07:30am 27.6 24.4 9.9 33 10.1 ENE 17 24 9 13 1019.3 1015.1 0.0
09/07:00am 26.6 24.2 9.9 35 9.5 ENE 13 19 7 10 1019.2 1015.0 0.0
09/06:30am 24.3 23.2 10.6 42 7.8 E 7 9 4 5 1019.1 1014.9 0.0
09/06:00am 22.6 21.4 10.4 46 6.9 ESE 7 11 4 6 1018.6 1014.4 0.0
09/05:30am 21.8 20.1 9.7 46 6.7 ESE 9 11 5 6 1018.3 1014.1 0.0
09/05:00am 22.3 20.1 9.5 44 7.1 ESE 11 13 6 7 1018.0 1013.8 0.0
09/04:30am 22.7 20.0 9.1 42 7.5 ESE 13 15 7 8 1017.8 1013.6 0.0
09/04:00am 23.2 21.3 8.9 40 7.8 SE 9 11 5 6 1017.5 1013.3 0.0
09/03:30am 23.1 21.0 8.4 39 8.0 E 9 9 5 5 1017.3 1013.1 0.0
09/03:00am 24.3 21.8 8.3 36 8.7 E 11 13 6 7 1017.2 1012.9 0.0
09/02:30am 25.4 22.5 8.0 33 9.5 E 13 17 7 9 1017.2 1012.9 0.0
09/02:00am 26.3 23.2 7.4 30 10.3 E 13 19 7 10 1017.2 1012.9 0.0
09/01:30am 27.3 23.0 7.2 28 11.0 E 19 26 10 14 1017.1 1012.8 0.0
09/01:00am 27.9 23.5 7.2 27 11.3 E 20 30 11 16 1017.2 1012.9 0.0
09/12:30am 27.5 23.7 7.4 28 11.0 E 17 22 9 12 1017.4 1013.2 0.0
09/12:00am 27.4 23.9 7.3 28 11.0 ESE 15 19 8 10 1017.5 1013.3 0.0
 
Date/Time
WST
Temp
°C
App
Temp
°C
Dew
Point
Rel
Hum
%
Delta-T
°C
Wind Press
QNH
hPa
Press
MSL
hPa
Rain
since 9 am
mm
Dir
 
Spd
km/h
Gust
km/h
Spd
kts
Gust
kts
08/11:30pm 28.3 24.8 7.0 26 11.6 SE 15 20 8 11 1017.8 1013.6 0.0
08/11:00pm 29.1 25.4 6.5 24 12.3 SE 15 19 8 10 1018.0 1013.8 0.0
08/10:30pm 29.7 25.6 6.4 23 12.7 SE 17 20 9 11 1018.0 1013.8 0.0
08/10:00pm 30.4 26.2 5.6 21 13.4 SE 17 20 9 11 1017.9 1013.7 0.0
08/09:30pm 29.6 26.3 6.3 23 12.7 SSE 13 17 7 9 1017.8 1013.6 0.0
08/09:00pm 29.9 26.9 5.9 22 13.0 SSE 11 13 6 7 1017.7 1013.5 0.0
08/08:30pm 30.5 27.4 5.7 21 13.4 SSE 11 15 6 8 1017.4 1013.2 0.0
08/08:00pm 31.2 28.1 5.6 20 13.9 SSE 11 13 6 7 1016.9 1012.7 0.0
08/07:30pm 32.3 28.7 5.0 18 14.7 SSE 13 15 7 8 1016.7 1012.5 0.0
08/07:00pm 33.9 29.5 4.6 16 15.8 SSE 17 22 9 12 1016.4 1012.2 0.0
08/06:30pm 34.9 29.9 3.5 14 16.8 SSE 19 24 10 13 1016.0 1011.8 0.0
08/06:00pm 35.9 31.2 3.2 13 17.5 SSE 17 22 9 12 1015.7 1011.5 0.0
08/05:30pm 36.2 31.5 3.4 13 17.6 ESE 17 30 9 16 1015.4 1011.1 0.0
08/05:00pm 36.5 31.3 2.5 12 18.0 SSE 19 30 10 16 1015.3 1011.0 0.0
08/04:30pm 37.0 33.6 1.7 11 18.6 SSW 9 19 5 10 1015.2 1010.9 0.0
08/04:00pm 37.3 33.7 3.1 12 18.4 ESE 11 20 6 11 1015.4 1011.1 0.0
08/03:30pm 36.7 32.7 2.7 12 18.1 S 13 20 7 11 1015.7 1011.5 0.0
08/03:00pm 37.0 32.4 1.7 11 18.6 ESE 15 26 8 14 1015.9 1011.7 0.0
08/02:30pm 36.3 32.2 2.4 12 18.0 SSE 13 24 7 13 1016.2 1012.0 0.0
08/02:00pm 36.5 31.7 2.5 12 18.0 SE 17 32 9 17 1016.5 1012.3 0.0
08/01:30pm 35.9 31.0 2.1 12 17.8 ESE 17 24 9 13 1016.9 1012.7 0.0
08/01:00pm 36.4 32.9 3.6 13 17.7 ENE 11 20 6 11 1017.3 1013.1 0.0
08/12:30pm 35.8 31.5 3.1 13 17.5 ENE 15 22 8 12 1017.8 1013.6 0.0
08/12:00pm 35.2 30.6 3.7 14 16.9 NE 17 24 9 13 1018.1 1013.9 0.0
08/11:30am 34.7 31.0 4.3 15 16.4 E 13 28 7 15 1018.5 1014.3 0.0
08/11:00am 33.7 28.9 4.4 16 15.8 ENE 19 26 10 14 1019.0 1014.8 0.0
08/10:30am 33.0 28.0 4.7 17 15.3 ENE 20 30 11 16 1019.3 1015.1 0.0

Other Formats:

Comma delimited format used in spreadsheet applications
http://www.bom.gov.au/fwo/IDW60801/IDW60801.99434.axf

JavaScript Object Notation format (JSON) in row-major order
http://www.bom.gov.au/fwo/IDW60801/IDW60801.99434.json